Time;durP1;ratioP1;P1;durP2;ratioP2;P2;SDS_P1;SDS_P2;PMS_P1;PMS_P2;Temp;Humidity;BMP_temperature;BMP_pressure;BME280_temperature;BME280_humidity;BME280_pressure;Samples;Min_cycle;Max_cycle;Signal;HPM_P1;HPM_P2
2021/12/03 00:01:26;;;;;;;31.20;20.70;;;0.90;99.90;;;;;;5058871;28;20908;-66
2021/12/03 00:03:58;;;;;;;31.63;23.67;;;1.00;99.90;;;;;;5059011;28;20466;-65
2021/12/03 00:06:25;;;;;;;30.70;21.97;;;0.90;99.90;;;;;;5058035;28;20485;-66
2021/12/03 00:08:53;;;;;;;30.50;22.10;;;0.90;99.90;;;;;;5059559;28;20462;-66
2021/12/03 00:11:20;;;;;;;34.73;23.67;;;0.90;99.90;;;;;;5059596;28;20470;-66
2021/12/03 00:13:47;;;;;;;34.67;23.80;;;0.90;99.90;;;;;;5059786;28;20465;-66
2021/12/03 00:16:15;;;;;;;39.53;25.13;;;0.90;99.90;;;;;;5058772;28;20474;-66
2021/12/03 00:18:42;;;;;;;34.80;24.20;;;0.90;99.90;;;;;;5059363;28;20491;-65
2021/12/03 00:21:12;;;;;;;37.00;25.33;;;0.90;99.90;;;;;;5059039;28;20470;-66
2021/12/03 00:23:40;;;;;;;40.87;28.27;;;0.90;99.90;;;;;;5059351;28;20514;-65
2021/12/03 00:26:08;;;;;;;46.10;28.43;;;1.00;99.90;;;;;;5059175;28;20462;-66
2021/12/03 00:28:39;;;;;;;46.17;28.03;;;1.00;99.90;;;;;;5058588;28;20462;-66
2021/12/03 00:31:07;;;;;;;45.27;28.30;;;1.10;99.90;;;;;;5058961;28;20465;-65
2021/12/03 00:33:35;;;;;;;36.23;24.90;;;1.00;99.90;;;;;;5058991;28;20466;-66
2021/12/03 00:36:06;;;;;;;44.37;27.63;;;1.10;99.90;;;;;;5058827;28;20893;-66
2021/12/03 00:38:41;;;;;;;45.40;25.73;;;1.10;99.90;;;;;;5057953;28;20489;-66
2021/12/03 00:41:10;;;;;;;44.13;27.03;;;1.00;99.90;;;;;;5058579;28;20469;-66
2021/12/03 00:43:41;;;;;;;43.50;27.73;;;1.10;99.90;;;;;;5059016;28;20470;-66
2021/12/03 00:46:09;;;;;;;38.10;24.27;;;1.10;99.90;;;;;;5058472;28;20522;-66
2021/12/03 00:48:37;;;;;;;53.30;29.30;;;1.00;99.90;;;;;;5058658;28;20458;-66
2021/12/03 00:51:05;;;;;;;42.53;28.87;;;1.10;99.90;;;;;;5058474;28;20519;-66
2021/12/03 00:53:34;;;;;;;50.10;29.53;;;1.10;99.90;;;;;;5058670;28;20468;-66
2021/12/03 00:56:01;;;;;;;56.80;29.77;;;1.10;99.90;;;;;;5058373;28;20494;-66
2021/12/03 00:58:28;;;;;;;55.50;30.07;;;1.10;99.90;;;;;;5058155;28;20462;-66
2021/12/03 01:00:59;;;;;;;45.13;30.03;;;1.20;99.90;;;;;;5058196;28;20615;-66
2021/12/03 01:03:26;;;;;;;49.60;29.70;;;1.20;99.90;;;;;;5058491;28;20465;-66
2021/12/03 01:05:57;;;;;;;46.37;29.97;;;1.20;99.90;;;;;;5058308;28;20976;-66
2021/12/03 01:08:27;;;;;;;52.90;33.50;;;1.20;99.90;;;;;;5057799;28;20477;-66
2021/12/03 01:10:58;;;;;;;52.97;30.10;;;1.20;99.90;;;;;;5057028;28;20511;-66
2021/12/03 01:13:25;;;;;;;59.00;34.10;;;1.10;99.90;;;;;;5057306;28;20791;-66
2021/12/03 01:15:52;;;;;;;57.63;36.03;;;1.20;99.90;;;;;;5058505;28;20543;-66
2021/12/03 01:18:19;;;;;;;66.37;38.53;;;1.10;99.90;;;;;;5057485;28;20469;-66
2021/12/03 01:20:49;;;;;;;62.20;38.60;;;1.10;99.90;;;;;;5058318;28;20493;-66
2021/12/03 01:23:19;;;;;;;72.17;40.70;;;1.10;99.90;;;;;;5057891;28;20469;-66
2021/12/03 01:25:46;;;;;;;64.40;39.33;;;1.10;99.90;;;;;;5058115;28;20565;-66
2021/12/03 01:28:16;;;;;;;70.50;40.97;;;1.10;99.90;;;;;;5057791;28;20516;-66
2021/12/03 01:30:45;;;;;;;70.33;41.40;;;1.10;99.90;;;;;;5057264;28;20466;-66
2021/12/03 01:33:14;;;;;;;56.00;38.97;;;1.10;99.90;;;;;;5057482;28;20472;-66
2021/12/03 01:35:43;;;;;;;56.33;36.07;;;1.10;99.90;;;;;;5057828;28;20468;-65
2021/12/03 01:38:11;;;;;;;53.43;39.00;;;1.20;99.90;;;;;;5057436;28;20474;-65
2021/12/03 01:40:39;;;;;;;53.07;37.10;;;1.20;99.90;;;;;;5056502;28;20533;-65
2021/12/03 01:43:13;;;;;;;54.97;36.47;;;1.30;99.90;;;;;;5057474;28;20950;-65
2021/12/03 01:45:43;;;;;;;57.87;38.87;;;1.30;99.90;;;;;;5057917;28;20468;-65
2021/12/03 01:48:10;;;;;;;51.07;34.90;;;1.30;99.90;;;;;;5062942;28;20435;-64
2021/12/03 01:50:42;;;;;;;49.83;33.83;;;1.30;99.90;;;;;;5066219;28;20824;-64
2021/12/03 01:53:12;;;;;;;56.37;34.17;;;1.30;99.90;;;;;;5057390;28;20523;-64
2021/12/03 01:55:40;;;;;;;48.43;33.17;;;1.30;99.90;;;;;;5057936;28;20504;-64
2021/12/03 01:58:08;;;;;;;42.30;31.97;;;1.40;99.90;;;;;;5057567;28;20466;-63
2021/12/03 02:00:39;;;;;;;40.60;26.43;;;1.30;99.90;;;;;;5057156;28;20468;-64
2021/12/03 02:03:11;;;;;;;47.13;28.87;;;1.40;99.90;;;;;;5058240;28;20905;-63
2021/12/03 02:05:38;;;;;;;39.90;28.00;;;1.40;99.90;;;;;;5057193;28;20588;-63
2021/12/03 02:08:06;;;;;;;40.90;27.07;;;1.50;99.90;;;;;;5057186;28;20466;-63
2021/12/03 02:10:34;;;;;;;46.00;28.93;;;1.40;99.90;;;;;;5057378;28;20462;-63
2021/12/03 02:13:02;;;;;;;46.33;30.40;;;1.40;99.90;;;;;;5058018;28;20458;-63
2021/12/03 02:15:29;;;;;;;49.50;31.20;;;1.50;99.90;;;;;;5057878;28;20820;-63
2021/12/03 02:17:56;;;;;;;47.87;31.50;;;1.50;99.90;;;;;;5058103;28;20470;-63
2021/12/03 02:20:25;;;;;;;45.00;29.70;;;1.50;99.90;;;;;;5057817;28;20838;-63
2021/12/03 02:22:54;;;;;;;44.43;28.60;;;1.50;99.90;;;;;;5056485;28;20458;-64
2021/12/03 02:25:23;;;;;;;37.17;26.30;;;1.50;99.90;;;;;;5057219;28;20465;-64
2021/12/03 02:27:53;;;;;;;43.10;28.40;;;1.50;99.90;;;;;;5057934;28;20437;-64
2021/12/03 02:30:20;;;;;;;38.57;26.93;;;1.50;99.90;;;;;;5057540;28;20458;-64
2021/12/03 02:32:49;;;;;;;41.80;26.00;;;1.50;99.90;;;;;;5056772;28;20512;-64
2021/12/03 02:35:17;;;;;;;42.23;28.87;;;1.60;99.90;;;;;;5057745;28;20889;-64
2021/12/03 02:37:44;;;;;;;45.23;30.53;;;1.60;99.90;;;;;;5057671;28;20470;-64
2021/12/03 02:40:15;;;;;;;46.60;31.27;;;1.50;99.90;;;;;;5057368;28;20498;-64
2021/12/03 02:42:43;;;;;;;49.50;31.63;;;1.50;99.90;;;;;;5056819;28;20559;-64
2021/12/03 02:45:12;;;;;;;51.07;33.23;;;1.40;99.90;;;;;;5057592;28;20470;-65
2021/12/03 02:47:39;;;;;;;57.67;35.80;;;1.40;99.90;;;;;;5057491;28;20441;-65
2021/12/03 02:50:09;;;;;;;57.40;34.33;;;1.40;99.90;;;;;;5057282;28;20482;-65
2021/12/03 02:52:36;;;;;;;55.17;36.00;;;1.40;99.90;;;;;;5056925;28;20457;-65
2021/12/03 02:55:05;;;;;;;55.70;37.00;;;1.40;99.90;;;;;;5057248;28;20732;-65
2021/12/03 02:57:34;;;;;;;55.93;35.20;;;1.40;99.90;;;;;;5057136;28;20461;-65
2021/12/03 03:00:01;;;;;;;56.87;36.03;;;1.40;99.90;;;;;;5057167;28;20886;-65
2021/12/03 03:02:28;;;;;;;59.20;37.83;;;1.40;99.90;;;;;;5057349;28;20466;-65
2021/12/03 03:04:55;;;;;;;52.97;32.60;;;1.40;99.90;;;;;;5056761;28;20814;-65
2021/12/03 03:07:22;;;;;;;54.17;33.17;;;1.40;99.90;;;;;;5057296;28;20455;-65
2021/12/03 03:09:49;;;;;;;56.70;32.70;;;1.40;99.90;;;;;;5057347;28;20465;-65
2021/12/03 03:12:17;;;;;;;51.40;29.83;;;1.40;99.90;;;;;;5056310;28;20490;-65
2021/12/03 03:14:47;;;;;;;56.17;31.30;;;1.40;99.90;;;;;;5056725;28;20908;-65
2021/12/03 03:17:14;;;;;;;52.90;30.70;;;1.50;99.90;;;;;;5057504;28;20464;-65
2021/12/03 03:19:41;;;;;;;52.40;30.60;;;1.50;99.90;;;;;;5057417;28;20490;-66
2021/12/03 03:22:08;;;;;;;56.60;32.10;;;1.50;99.90;;;;;;5056977;28;20462;-65
2021/12/03 03:24:35;;;;;;;48.30;30.87;;;1.40;99.90;;;;;;5056816;28;20487;-66
2021/12/03 03:27:03;;;;;;;46.27;29.13;;;1.40;99.90;;;;;;5057026;28;20869;-66
2021/12/03 03:29:31;;;;;;;48.53;29.27;;;1.50;99.90;;;;;;5056105;28;20843;-66
2021/12/03 03:32:00;;;;;;;54.93;29.07;;;1.40;99.90;;;;;;5056717;28;20510;-66
2021/12/03 03:34:27;;;;;;;52.63;30.53;;;1.50;99.90;;;;;;5056428;28;20453;-66
2021/12/03 03:36:54;;;;;;;51.63;29.60;;;1.40;99.90;;;;;;5040051;28;20441;-66
2021/12/03 03:39:21;;;;;;;51.30;30.03;;;1.40;99.90;;;;;;5040199;28;20470;-66
2021/12/03 03:41:49;;;;;;;52.57;31.83;;;1.40;99.90;;;;;;5040174;28;20462;-66
2021/12/03 03:44:16;;;;;;;54.40;30.33;;;1.50;99.90;;;;;;5059146;28;20462;-66
2021/12/03 03:46:44;;;;;;;53.90;31.57;;;1.50;99.90;;;;;;5059874;28;20564;-66
2021/12/03 03:49:12;;;;;;;48.83;31.30;;;1.50;99.90;;;;;;5074245;28;20461;-67
2021/12/03 03:51:42;;;;;;;49.60;30.80;;;1.50;99.90;;;;;;5080431;28;20483;-67
2021/12/03 03:54:14;;;;;;;57.10;31.87;;;1.50;99.90;;;;;;5063777;28;20433;-67
2021/12/03 03:56:41;;;;;;;48.00;27.70;;;1.50;99.90;;;;;;5059084;28;20471;-67
2021/12/03 03:59:08;;;;;;;43.80;27.43;;;1.50;99.90;;;;;;5059991;28;20523;-67
2021/12/03 04:01:37;;;;;;;49.20;29.00;;;1.50;99.90;;;;;;5059693;28;20497;-67
2021/12/03 04:04:04;;;;;;;45.40;27.73;;;1.50;99.90;;;;;;5058245;28;20475;-67
2021/12/03 04:06:33;;;;;;;43.37;25.27;;;1.50;99.90;;;;;;5058804;28;20489;-67
2021/12/03 04:09:00;;;;;;;47.80;26.97;;;1.50;99.90;;;;;;5058977;28;20462;-67
2021/12/03 04:11:27;;;;;;;50.53;29.30;;;1.60;99.90;;;;;;5059458;28;20782;-67
2021/12/03 04:13:54;;;;;;;41.93;26.83;;;1.50;99.90;;;;;;5059411;28;20469;-67
2021/12/03 04:16:21;;;;;;;47.90;29.80;;;1.60;99.90;;;;;;5058428;28;20470;-67
2021/12/03 04:18:49;;;;;;;43.50;28.10;;;1.60;99.90;;;;;;5059003;28;20520;-67
2021/12/03 04:21:16;;;;;;;49.10;29.90;;;1.60;99.90;;;;;;5059215;28;20512;-67
2021/12/03 04:23:45;;;;;;;47.10;29.87;;;1.60;99.90;;;;;;5059108;28;20437;-67
2021/12/03 04:26:12;;;;;;;46.47;29.57;;;1.60;99.90;;;;;;5058724;28;20453;-68
2021/12/03 04:28:39;;;;;;;53.90;29.93;;;1.60;99.90;;;;;;5058326;28;20492;-68
2021/12/03 04:31:06;;;;;;;49.30;29.97;;;1.60;99.90;;;;;;5058819;28;20516;-67
2021/12/03 04:33:33;;;;;;;49.83;29.13;;;1.60;99.90;;;;;;5059383;28;20429;-68
2021/12/03 04:36:01;;;;;;;47.37;28.20;;;1.60;99.90;;;;;;5058936;28;20441;-68
2021/12/03 04:38:31;;;;;;;51.17;29.23;;;1.70;99.90;;;;;;5057702;28;20956;-67
2021/12/03 04:41:01;;;;;;;47.13;29.10;;;1.70;99.90;;;;;;5058093;28;20469;-67
2021/12/03 04:43:28;;;;;;;45.40;28.60;;;1.70;99.90;;;;;;5059235;28;20476;-67
2021/12/03 04:45:56;;;;;;;51.67;29.13;;;1.70;99.90;;;;;;5058584;28;20445;-68
2021/12/03 04:48:23;;;;;;;40.80;26.20;;;1.80;99.90;;;;;;5057962;28;20444;-68
2021/12/03 04:50:50;;;;;;;41.00;25.80;;;1.70;99.90;;;;;;5058544;28;20572;-67
2021/12/03 04:53:19;;;;;;;48.30;26.23;;;1.70;99.90;;;;;;5058677;28;20786;-68
2021/12/03 04:55:46;;;;;;;44.93;26.50;;;1.70;99.90;;;;;;5058069;28;20492;-68
2021/12/03 04:58:15;;;;;;;46.60;28.03;;;1.80;99.90;;;;;;5057711;28;20441;-68
2021/12/03 05:00:45;;;;;;;46.40;29.90;;;1.80;99.90;;;;;;5058110;28;20584;-68
2021/12/03 05:03:13;;;;;;;47.13;30.20;;;1.80;99.90;;;;;;5058392;28;20474;-68
2021/12/03 05:05:44;;;;;;;49.67;26.37;;;1.80;99.90;;;;;;5057797;28;20500;-68
2021/12/03 05:08:11;;;;;;;49.20;30.03;;;1.70;99.90;;;;;;5057196;28;20462;-68
2021/12/03 05:10:41;;;;;;;51.87;29.80;;;1.70;99.90;;;;;;5058131;28;20560;-68
2021/12/03 05:13:11;;;;;;;49.97;29.70;;;1.70;99.90;;;;;;5057761;28;20524;-68
2021/12/03 05:15:40;;;;;;;50.30;30.20;;;1.70;99.90;;;;;;5058533;28;20752;-68
2021/12/03 05:18:10;;;;;;;44.33;27.37;;;1.70;99.90;;;;;;5057740;28;20450;-68
2021/12/03 05:20:37;;;;;;;42.90;29.20;;;1.80;99.90;;;;;;5057465;28;20512;-68
2021/12/03 05:23:05;;;;;;;43.60;29.00;;;1.80;99.90;;;;;;5058008;28;20444;-68
2021/12/03 05:25:32;;;;;;;46.67;31.23;;;1.80;99.90;;;;;;5058131;28;20844;-68
2021/12/03 05:28:02;;;;;;;39.97;27.17;;;1.80;99.90;;;;;;5057192;28;20868;-68
2021/12/03 05:30:29;;;;;;;51.10;26.63;;;1.80;99.90;;;;;;5059798;28;20454;-68
2021/12/03 05:32:58;;;;;;;53.77;27.90;;;1.80;99.90;;;;;;5069729;28;20465;-68
2021/12/03 05:35:26;;;;;;;49.60;29.30;;;1.70;99.90;;;;;;5056895;28;20465;-68
2021/12/03 05:37:54;;;;;;;45.33;29.47;;;1.80;99.90;;;;;;5056521;28;20466;-68
2021/12/03 05:40:21;;;;;;;61.33;33.60;;;1.80;99.90;;;;;;5056626;28;20526;-68
2021/12/03 05:42:49;;;;;;;46.27;28.63;;;1.80;99.90;;;;;;5057366;28;20468;-68
2021/12/03 05:45:20;;;;;;;48.80;28.27;;;1.80;99.90;;;;;;5057614;28;20469;-68
2021/12/03 05:47:47;;;;;;;46.70;26.23;;;1.80;99.90;;;;;;5057750;28;20494;-68
2021/12/03 05:50:16;;;;;;;42.50;26.43;;;1.90;99.90;;;;;;5056626;28;20458;-68
2021/12/03 05:52:44;;;;;;;41.50;26.03;;;1.90;99.90;;;;;;5057373;28;20859;-67
2021/12/03 05:55:12;;;;;;;39.80;24.67;;;1.90;99.90;;;;;;5057435;28;20488;-67
2021/12/03 05:57:40;;;;;;;49.50;26.23;;;1.90;99.90;;;;;;5056938;28;20466;-67
2021/12/03 06:00:10;;;;;;;43.77;25.20;;;1.90;99.90;;;;;;5057146;28;20607;-68
2021/12/03 06:02:37;;;;;;;41.40;25.57;;;1.90;99.90;;;;;;5056998;28;20912;-68
2021/12/03 06:05:08;;;;;;;41.07;24.67;;;1.90;99.90;;;;;;5056925;28;20493;-68
2021/12/03 06:07:36;;;;;;;33.80;21.73;;;1.90;99.90;;;;;;5056497;28;20868;-67
2021/12/03 06:10:04;;;;;;;34.27;20.13;;;1.90;99.90;;;;;;5057038;28;20516;-67
2021/12/03 06:12:34;;;;;;;34.47;21.03;;;1.90;99.90;;;;;;5056642;28;20440;-68
2021/12/03 06:15:01;;;;;;;31.93;20.70;;;2.00;99.90;;;;;;5056681;28;20843;-68
2021/12/03 06:17:30;;;;;;;31.73;20.67;;;2.00;99.90;;;;;;5057714;28;20524;-67
2021/12/03 06:19:57;;;;;;;37.00;22.10;;;2.00;99.90;;;;;;5057319;28;20516;-68
2021/12/03 06:22:25;;;;;;;41.63;20.83;;;2.00;99.90;;;;;;5056606;28;20432;-67
2021/12/03 06:24:53;;;;;;;30.40;19.63;;;2.00;99.90;;;;;;5056841;28;20454;-67
2021/12/03 06:27:22;;;;;;;31.50;20.80;;;2.10;99.90;;;;;;5056800;28;20828;-68
2021/12/03 06:29:52;;;;;;;31.23;18.80;;;2.00;99.90;;;;;;5054451;28;20541;-68
2021/12/03 06:32:22;;;;;;;29.20;18.47;;;2.00;99.90;;;;;;5056018;28;20516;-67
2021/12/03 06:34:54;;;;;;;39.87;20.60;;;2.00;99.90;;;;;;5056366;28;20465;-67
2021/12/03 06:37:23;;;;;;;37.43;21.57;;;2.10;99.90;;;;;;5055096;28;21085;-68
2021/12/03 06:39:50;;;;;;;40.57;23.27;;;2.10;99.90;;;;;;5058772;28;20456;-67
2021/12/03 06:42:19;;;;;;;42.40;22.80;;;2.10;99.90;;;;;;5061706;28;20935;-66
2021/12/03 06:44:46;;;;;;;39.47;23.10;;;2.10;99.90;;;;;;5062160;28;20464;-65
2021/12/03 06:47:13;;;;;;;43.30;23.50;;;2.10;99.90;;;;;;5064424;28;20810;-65
2021/12/03 06:49:40;;;;;;;42.57;23.67;;;2.10;99.90;;;;;;5058936;28;20798;-66
2021/12/03 06:52:11;;;;;;;37.30;22.07;;;2.10;99.90;;;;;;5055003;28;20868;-66
2021/12/03 06:54:38;;;;;;;37.90;21.80;;;2.10;99.90;;;;;;5054996;28;20819;-65
2021/12/03 06:57:07;;;;;;;41.13;23.63;;;2.10;99.90;;;;;;5055825;28;20462;-65
2021/12/03 06:59:38;;;;;;;38.40;24.00;;;2.10;99.90;;;;;;5055431;28;20473;-65
2021/12/03 07:02:12;;;;;;;36.17;23.83;;;2.10;99.90;;;;;;5055666;28;20526;-65
2021/12/03 07:04:44;;;;;;;35.03;23.67;;;2.10;99.90;;;;;;5054304;28;20576;-66
2021/12/03 07:07:11;;;;;;;41.83;23.30;;;2.10;99.90;;;;;;5053290;28;20466;-65
2021/12/03 07:09:42;;;;;;;36.03;22.53;;;2.20;99.90;;;;;;5054378;28;20462;-65
2021/12/03 07:12:10;;;;;;;38.23;22.77;;;2.20;99.90;;;;;;5057798;28;20462;-65
2021/12/03 07:14:39;;;;;;;39.50;24.20;;;2.20;99.90;;;;;;5058590;28;20527;-65
2021/12/03 07:17:06;;;;;;;39.63;24.97;;;2.20;99.90;;;;;;5059833;28;20486;-66
2021/12/03 07:19:39;;;;;;;48.57;26.30;;;2.20;99.90;;;;;;5059721;28;20489;-65
2021/12/03 07:22:09;;;;;;;40.13;24.87;;;2.20;99.90;;;;;;5059946;28;20608;-65
2021/12/03 07:24:36;;;;;;;39.83;24.10;;;2.20;99.90;;;;;;5058764;28;20558;-65
2021/12/03 07:27:03;;;;;;;42.37;24.70;;;2.30;99.90;;;;;;5039742;28;20467;-65
2021/12/03 07:29:31;;;;;;;41.37;24.97;;;2.30;99.90;;;;;;5055670;28;20919;-65
2021/12/03 07:32:00;;;;;;;35.53;21.47;;;2.30;99.90;;;;;;5059955;28;20469;-65
2021/12/03 07:34:27;;;;;;;52.03;26.00;;;2.30;99.90;;;;;;5059932;28;20466;-65
2021/12/03 07:36:54;;;;;;;39.00;22.87;;;2.30;99.90;;;;;;5059186;28;20466;-65
2021/12/03 07:39:21;;;;;;;42.33;22.57;;;2.30;99.90;;;;;;5059847;28;20809;-65
2021/12/03 07:41:48;;;;;;;40.23;22.90;;;2.30;99.90;;;;;;5060309;28;20489;-66
2021/12/03 07:44:15;;;;;;;31.90;22.60;;;2.30;99.90;;;;;;5059709;28;20466;-66
2021/12/03 07:46:42;;;;;;;36.10;21.63;;;2.30;99.90;;;;;;5059208;28;20903;-66
2021/12/03 07:49:14;;;;;;;41.93;22.53;;;2.40;99.90;;;;;;5072811;28;20466;-66
2021/12/03 07:51:44;;;;;;;39.20;22.90;;;2.30;99.90;;;;;;5077280;28;20458;-65
2021/12/03 07:54:11;;;;;;;33.23;19.87;;;2.40;99.90;;;;;;5060074;28;20524;-66
2021/12/03 07:56:38;;;;;;;36.90;20.70;;;2.30;99.90;;;;;;5059258;28;20897;-66
2021/12/03 07:59:05;;;;;;;28.03;17.33;;;2.40;99.90;;;;;;5059559;28;20531;-66
2021/12/03 08:01:36;;;;;;;34.90;18.40;;;2.40;99.90;;;;;;5059895;28;20509;-65
2021/12/03 08:04:06;;;;;;;25.63;17.33;;;2.40;99.90;;;;;;5059548;28;20462;-65
2021/12/03 08:06:37;;;;;;;28.97;16.83;;;2.40;99.90;;;;;;5058581;28;20490;-65
2021/12/03 08:09:04;;;;;;;28.23;17.10;;;2.40;99.90;;;;;;5060302;28;20804;-65
2021/12/03 08:11:31;;;;;;;32.17;18.37;;;2.40;99.90;;;;;;5060121;28;20455;-65
2021/12/03 08:14:01;;;;;;;29.53;17.17;;;2.50;99.90;;;;;;5059708;28;20742;-65
2021/12/03 08:16:28;;;;;;;23.23;17.53;;;2.40;99.90;;;;;;5058942;28;20458;-66
2021/12/03 08:18:57;;;;;;;33.93;18.27;;;2.50;99.90;;;;;;5059951;28;20963;-65
2021/12/03 08:21:24;;;;;;;24.30;18.57;;;2.50;99.90;;;;;;5058719;28;20560;-65
2021/12/03 08:23:53;;;;;;;30.87;20.47;;;2.40;99.90;;;;;;5059519;28;20451;-66
2021/12/03 08:26:21;;;;;;;34.17;22.23;;;2.40;99.90;;;;;;5059896;28;20508;-66
2021/12/03 08:28:54;;;;;;;32.27;21.10;;;2.40;99.90;;;;;;5059634;28;20458;-66
2021/12/03 08:31:21;;;;;;;30.07;19.60;;;2.50;99.90;;;;;;5058677;28;20966;-66
2021/12/03 08:33:49;;;;;;;31.97;18.33;;;2.40;99.90;;;;;;5059447;28;20458;-66
2021/12/03 08:36:16;;;;;;;30.43;18.00;;;2.50;99.90;;;;;;5062051;28;20994;-66
2021/12/03 08:38:47;;;;;;;23.97;16.17;;;2.40;99.90;;;;;;5048020;28;20523;-66
2021/12/03 08:41:17;;;;;;;25.17;13.57;;;2.40;99.90;;;;;;5046036;28;21030;-66
2021/12/03 08:43:45;;;;;;;24.00;16.13;;;2.40;99.90;;;;;;5052056;28;20471;-66
2021/12/03 08:46:15;;;;;;;26.33;15.07;;;2.40;99.90;;;;;;5043632;28;20471;-66
2021/12/03 08:48:46;;;;;;;22.73;14.90;;;2.50;99.90;;;;;;5048543;28;20467;-64
2021/12/03 08:51:32;;;;;;;24.00;14.20;;;2.40;99.90;;;;;;5048515;28;20466;-64
2021/12/03 08:56:48;;;;;;;24.87;14.03;;;2.50;99.90;;;;;;5052363;28;20770;-64
2021/12/03 08:59:16;;;;;;;28.03;15.43;;;2.60;99.90;;;;;;5056368;28;20462;-64
2021/12/03 09:01:44;;;;;;;21.73;13.30;;;2.60;99.90;;;;;;5057948;28;20559;-65
2021/12/03 09:04:14;;;;;;;22.33;11.50;;;2.50;99.90;;;;;;5058146;28;20459;-65
2021/12/03 09:06:42;;;;;;;17.80;11.10;;;2.60;99.90;;;;;;5023623;28;21075;-64
2021/12/03 09:09:11;;;;;;;18.50;10.00;;;2.60;99.90;;;;;;5029043;28;20526;-64
2021/12/03 09:11:40;;;;;;;15.43;10.67;;;2.60;99.90;;;;;;5020511;28;20464;-64
2021/12/03 09:14:16;;;;;;;21.77;11.20;;;2.60;99.90;;;;;;5016939;28;20475;-65
2021/12/03 09:16:45;;;;;;;17.40;8.87;;;2.60;99.90;;;;;;5016820;28;20466;-64
2021/12/03 09:19:19;;;;;;;16.43;9.07;;;2.60;99.90;;;;;;5017675;28;20511;-64
2021/12/03 09:21:47;;;;;;;18.23;8.80;;;2.60;99.90;;;;;;5010460;28;20496;-65
2021/12/03 09:24:17;;;;;;;13.70;8.23;;;2.60;99.90;;;;;;5016580;28;20511;-64
2021/12/03 09:26:44;;;;;;;17.20;9.47;;;2.70;99.90;;;;;;5017531;28;20539;-64
2021/12/03 09:29:16;;;;;;;12.57;7.87;;;2.70;99.90;;;;;;5010542;28;20464;-64
2021/12/03 09:31:46;;;;;;;14.77;7.07;;;2.70;99.90;;;;;;5006245;28;20555;-64
2021/12/03 09:34:16;;;;;;;14.20;8.67;;;2.70;99.90;;;;;;5016322;28;20542;-64
2021/12/03 09:36:43;;;;;;;15.37;7.10;;;2.80;99.90;;;;;;5016749;28;20842;-64
2021/12/03 09:39:16;;;;;;;16.23;6.83;;;2.90;99.90;;;;;;5017525;28;20562;-65
2021/12/03 09:41:43;;;;;;;16.47;7.57;;;2.90;99.90;;;;;;5013863;28;20499;-64
2021/12/03 09:44:12;;;;;;;13.53;7.57;;;3.00;99.90;;;;;;5011725;28;20478;-65
2021/12/03 09:46:42;;;;;;;17.07;7.90;;;3.00;99.90;;;;;;5016504;28;20866;-64
2021/12/03 09:49:27;;;;;;;13.23;6.70;;;3.10;99.90;;;;;;5017097;28;20464;-65
2021/12/03 09:52:03;;;;;;;12.27;7.23;;;3.10;99.90;;;;;;4998398;28;20768;-65
2021/12/03 09:54:38;;;;;;;19.10;6.90;;;3.00;99.90;;;;;;5016080;28;20557;-66
2021/12/03 09:57:08;;;;;;;10.67;6.33;;;3.00;99.90;;;;;;5018093;28;20474;-67
2021/12/03 09:59:56;;;;;;;16.20;6.30;;;3.00;99.90;;;;;;5017456;28;20441;-67
2021/12/03 10:13:42;;;;;;;15.90;5.17;;;3.00;99.90;;;;;;5055574;28;20481;-67
2021/12/03 10:16:19;;;;;;;11.00;5.10;;;3.00;99.90;;;;;;5056165;28;20909;-67
2021/12/03 10:18:51;;;;;;;16.63;6.80;;;3.00;99.90;;;;;;5056808;28;20864;-67
2021/12/03 10:21:59;;;;;;;8.97;5.10;;;3.00;99.90;;;;;;5056736;28;20462;-67
2021/12/03 10:27:41;;;;;;;9.20;5.07;;;3.10;99.90;;;;;;5056978;28;20452;-67
2021/12/03 10:30:30;;;;;;;9.73;5.03;;;3.10;99.90;;;;;;5057068;28;20517;-66
2021/12/03 10:38:52;;;;;;;11.50;5.30;;;3.10;99.90;;;;;;5056506;28;20484;-67
2021/12/03 10:41:36;;;;;;;13.90;4.67;;;3.20;99.90;;;;;;5056371;28;20472;-66
2021/12/03 10:44:18;;;;;;;10.80;5.07;;;3.20;99.90;;;;;;5055101;28;20791;-66
2021/12/03 10:47:02;;;;;;;10.13;4.60;;;3.20;99.90;;;;;;5058742;28;20477;-66
2021/12/03 10:49:44;;;;;;;9.40;5.27;;;3.30;99.90;;;;;;5077118;28;20440;-66
2021/12/03 10:58:13;;;;;;;10.90;5.23;;;3.40;99.90;;;;;;5059882;28;20438;-66
2021/12/03 11:01:05;;;;;;;11.57;5.57;;;3.50;99.90;;;;;;5060290;28;20457;-65
2021/12/03 11:40:51;;;;;;;13.70;5.73;;;3.50;1.00;;;;;;5018084;28;20391;-65
2021/12/03 12:19:24;;;;;;;7.33;4.60;;;3.60;31.30;;;;;;4995671;28;20466;-62
2021/12/03 12:25:09;;;;;;;8.57;5.00;;;3.70;1.00;;;;;;5067391;28;20735;-63
2021/12/03 13:28:35;;;;;;;9.27;5.57;;;3.70;1.00;;;;;;5077643;28;20433;-64
2021/12/03 14:42:47;;;;;;;13.10;4.23;;;3.60;1.00;;;;;;4999263;28;20548;-64
2021/12/03 14:45:29;;;;;;;6.03;3.80;;;3.60;1.00;;;;;;5056581;28;20467;-65
2021/12/03 14:48:18;;;;;;;6.23;4.67;;;3.60;1.00;;;;;;5057812;28;20747;-65
2021/12/03 14:56:04;;;;;;;5.90;4.47;;;3.60;1.00;;;;;;5013912;28;20443;-64
2021/12/03 14:58:45;;;;;;;6.03;4.53;;;3.60;1.00;;;;;;5041518;28;20458;-64
2021/12/03 15:01:19;;;;;;;5.90;4.33;;;3.60;1.00;;;;;;5055904;28;20978;-65
2021/12/03 15:04:18;;;;;;;5.13;4.63;;;3.60;1.00;;;;;;5056569;28;20577;-65
2021/12/03 15:07:03;;;;;;;7.83;4.30;;;3.60;1.00;;;;;;5056656;28;20473;-64
2021/12/03 15:09:32;;;;;;;5.50;4.60;;;3.60;1.00;;;;;;5055917;28;20471;-65
2021/12/03 15:23:16;;;;;;;6.90;4.83;;;3.30;86.40;;;;;;5043081;28;20470;-65
2021/12/03 15:25:58;;;;;;;9.90;6.93;;;3.30;99.90;;;;;;5056559;28;20474;-64
2021/12/03 15:31:24;;;;;;;7.50;4.93;;;3.00;99.90;;;;;;5058302;28;20438;-64
2021/12/03 15:33:56;;;;;;;6.70;4.90;;;3.00;1.00;;;;;;5060159;28;20453;-64
2021/12/03 15:36:31;;;;;;;8.30;5.57;;;2.90;55.20;;;;;;5059637;28;20462;-64
2021/12/03 15:39:17;;;;;;;11.67;5.97;;;2.90;1.00;;;;;;5059431;28;20815;-64
2021/12/03 15:56:12;;;;;;;12.33;5.97;;;2.70;99.90;;;;;;5059661;28;20449;-65
2021/12/03 16:04:26;;;;;;;9.90;6.50;;;2.50;28.30;;;;;;4968413;28;20466;-65
2021/12/03 16:07:08;;;;;;;10.20;7.57;;;2.50;99.90;;;;;;5011296;28;20456;-65
2021/12/03 16:12:24;;;;;;;11.37;6.63;;;2.50;99.90;;;;;;5058116;28;20726;-63
2021/12/03 16:15:16;;;;;;;12.57;7.47;;;2.40;99.90;;;;;;5059440;28;20888;-63
2021/12/03 16:18:10;;;;;;;16.27;8.30;;;2.50;99.90;;;;;;5059019;28;20462;-60
2021/12/03 16:23:42;;;;;;;11.03;7.17;;;2.40;99.90;;;;;;5058313;28;20471;-63
2021/12/03 16:26:42;;;;;;;11.90;7.70;;;2.40;99.90;;;;;;5058256;28;20548;-62
2021/12/03 16:46:09;;;;;;;10.80;7.60;;;2.30;99.90;;;;;;5059595;28;20461;-62
2021/12/03 16:51:34;;;;;;;10.37;8.40;;;2.40;99.90;;;;;;5078592;28;20436;-63
2021/12/03 16:54:07;;;;;;;10.33;7.90;;;2.30;99.90;;;;;;5059916;28;20465;-63
2021/12/03 16:56:35;;;;;;;10.50;8.00;;;2.40;99.90;;;;;;5058264;28;20751;-64
2021/12/03 16:59:04;;;;;;;8.00;7.00;;;2.40;99.90;;;;;;5058823;28;20462;-64
2021/12/03 17:01:38;;;;;;;9.80;7.67;;;2.40;99.90;;;;;;5058691;28;20810;-64
2021/12/03 17:04:14;;;;;;;11.83;8.00;;;2.30;99.90;;;;;;5057766;28;20494;-64
2021/12/03 17:07:26;;;;;;;10.50;7.93;;;2.30;99.90;;;;;;5058031;28;20588;-64
2021/12/03 17:10:17;;;;;;;12.20;7.90;;;2.30;99.90;;;;;;5058687;28;20830;-64
2021/12/03 17:15:51;;;;;;;8.90;7.33;;;2.30;99.90;;;;;;5021871;28;20438;-64
2021/12/03 17:30:00;;;;;;;10.40;7.80;;;2.30;99.90;;;;;;4995859;28;20511;-64
2021/12/03 17:46:44;;;;;;;11.67;8.27;;;2.30;99.90;;;;;;5036589;28;20557;-65
2021/12/03 17:49:30;;;;;;;13.73;8.80;;;2.30;99.90;;;;;;5066267;28;20461;-65
2021/12/03 17:52:09;;;;;;;14.50;11.10;;;2.30;99.90;;;;;;5077500;28;20461;-64
2021/12/03 17:54:56;;;;;;;20.90;11.67;;;2.30;99.90;;;;;;5056341;28;20485;-64
2021/12/03 17:57:31;;;;;;;20.40;12.20;;;2.30;99.90;;;;;;5057695;28;20472;-64
2021/12/03 18:00:01;;;;;;;16.33;10.90;;;2.30;99.90;;;;;;5057729;28;20468;-65
2021/12/03 18:02:36;;;;;;;17.67;12.50;;;2.40;99.90;;;;;;5057382;28;20500;-65
2021/12/03 18:07:55;;;;;;;17.73;9.90;;;2.30;99.90;;;;;;5037706;28;20553;-65
2021/12/03 18:10:49;;;;;;;29.37;15.37;;;2.40;99.90;;;;;;5049233;28;20569;-65
2021/12/03 18:46:57;;;;;;;12.97;10.70;;;2.40;99.90;;;;;;5056583;28;20446;-65
2021/12/03 18:52:40;;;;;;;16.23;9.80;;;2.40;99.90;;;;;;5055756;28;20443;-65
2021/12/03 18:55:09;;;;;;;11.77;9.53;;;2.40;99.90;;;;;;5037152;28;20465;-64
2021/12/03 18:57:43;;;;;;;10.77;8.10;;;2.30;99.90;;;;;;5054402;28;20758;-65
2021/12/03 19:00:27;;;;;;;18.90;14.30;;;2.30;99.90;;;;;;5056007;28;20462;-64
2021/12/03 19:03:10;;;;;;;13.43;10.53;;;2.40;99.90;;;;;;5069315;28;20864;-65
2021/12/03 19:05:51;;;;;;;12.50;9.67;;;2.40;99.90;;;;;;5078201;28;20489;-65
2021/12/03 19:08:21;;;;;;;17.57;14.17;;;2.40;99.90;;;;;;5080374;28;20472;-65
2021/12/03 19:10:53;;;;;;;11.80;9.37;;;2.40;99.90;;;;;;5060620;28;20474;-65